createdAt,value
2023-11-08T00:01:40.505Z,2.70
2023-11-08T00:04:08.042Z,2.70
2023-11-08T00:06:35.204Z,2.70
2023-11-08T00:09:03.877Z,2.70
2023-11-08T00:11:31.928Z,2.60
2023-11-08T00:13:59.046Z,2.60
2023-11-08T00:16:27.693Z,2.60
2023-11-08T00:18:54.754Z,2.50
2023-11-08T00:21:21.875Z,2.40
2023-11-08T00:23:49.743Z,2.30
2023-11-08T00:26:17.084Z,2.30
2023-11-08T00:28:44.385Z,2.30
2023-11-08T00:31:11.476Z,2.20
2023-11-08T00:33:38.628Z,2.10
2023-11-08T00:36:07.288Z,2.20
2023-11-08T00:38:34.475Z,2.00
2023-11-08T00:41:01.544Z,2.00
2023-11-08T00:43:28.579Z,1.90
2023-11-08T00:45:55.643Z,1.90
2023-11-08T00:48:24.965Z,1.90
2023-11-08T00:50:53.977Z,1.80
2023-11-08T00:53:22.494Z,1.80
2023-11-08T00:55:49.478Z,1.70
2023-11-08T00:58:16.653Z,1.70
2023-11-08T01:00:43.734Z,1.60
2023-11-08T01:03:11.064Z,1.80
2023-11-08T01:05:38.209Z,1.80
2023-11-08T01:08:06.674Z,1.80
2023-11-08T01:10:35.950Z,1.90
2023-11-08T01:13:07.736Z,1.80
2023-11-08T01:15:34.834Z,1.80
2023-11-08T01:18:02.051Z,1.70
2023-11-08T01:20:29.165Z,1.60
2023-11-08T01:22:56.167Z,1.60
2023-11-08T01:25:24.648Z,1.70
2023-11-08T01:27:52.463Z,1.70
2023-11-08T01:30:19.504Z,1.70
2023-11-08T01:32:46.489Z,1.80
2023-11-08T01:35:13.534Z,1.70
2023-11-08T01:37:42.142Z,1.70
2023-11-08T01:40:09.873Z,1.80
2023-11-08T01:42:37.059Z,1.80
2023-11-08T01:45:06.042Z,1.90
2023-11-08T01:47:36.903Z,1.90
2023-11-08T01:50:08.268Z,2.10
2023-11-08T01:52:36.468Z,2.20
2023-11-08T01:55:05.220Z,2.20
2023-11-08T01:57:33.251Z,2.30
2023-11-08T02:00:01.122Z,2.30
2023-11-08T02:02:29.409Z,2.30
2023-11-08T02:04:56.787Z,2.30
2023-11-08T02:07:24.900Z,2.30
2023-11-08T02:09:52.010Z,2.30
2023-11-08T02:12:19.191Z,2.40
2023-11-08T02:15:07.048Z,2.40
2023-11-08T02:17:34.140Z,2.40
2023-11-08T02:20:04.905Z,2.40
2023-11-08T02:22:32.421Z,2.40
2023-11-08T02:25:00.247Z,2.50
2023-11-08T02:27:27.343Z,2.60
2023-11-08T02:29:54.352Z,2.60
2023-11-08T02:32:21.324Z,2.70
2023-11-08T02:34:50.166Z,2.70
2023-11-08T02:37:17.271Z,2.70
2023-11-08T02:39:44.345Z,2.80
2023-11-08T02:42:11.702Z,2.70
2023-11-08T02:44:39.642Z,2.70
2023-11-08T02:47:08.179Z,2.70
2023-11-08T02:49:35.357Z,2.70
2023-11-08T02:52:03.443Z,2.60
2023-11-08T02:54:30.692Z,2.60
2023-11-08T02:56:57.812Z,2.60
2023-11-08T02:59:24.792Z,2.60
2023-11-08T03:01:51.914Z,2.60
2023-11-08T03:04:20.243Z,2.50
2023-11-08T03:06:47.777Z,2.50
2023-11-08T03:09:16.033Z,2.50
2023-11-08T03:11:43.102Z,2.40
2023-11-08T03:14:10.388Z,2.50
2023-11-08T03:16:37.584Z,2.50
2023-11-08T03:19:04.941Z,2.50
2023-11-08T03:21:33.132Z,2.40
2023-11-08T03:24:02.214Z,2.40
2023-11-08T03:26:30.443Z,2.40
2023-11-08T03:28:57.459Z,2.40
2023-11-08T03:31:24.456Z,2.40
2023-11-08T03:33:51.699Z,2.40
2023-11-08T03:36:20.423Z,2.40
2023-11-08T03:38:47.518Z,2.40
2023-11-08T03:41:15.782Z,2.30
2023-11-08T03:43:42.827Z,2.30
2023-11-08T03:46:11.190Z,2.30
2023-11-08T03:48:38.858Z,2.40
2023-11-08T03:51:06.066Z,2.40
2023-11-08T03:53:33.114Z,2.40
2023-11-08T03:56:00.183Z,2.30
2023-11-08T03:58:27.203Z,2.30
2023-11-08T04:00:54.265Z,2.30
2023-11-08T04:03:21.609Z,2.20
2023-11-08T04:05:49.168Z,2.20
2023-11-08T04:08:17.417Z,2.00
2023-11-08T04:10:44.529Z,1.90
2023-11-08T04:13:12.690Z,1.80
2023-11-08T04:15:40.025Z,1.70
2023-11-08T04:18:07.320Z,1.60
2023-11-08T04:20:35.314Z,1.60
2023-11-08T04:23:03.442Z,1.60
2023-11-08T04:25:32.229Z,1.70
2023-11-08T04:28:00.518Z,1.50
2023-11-08T04:30:28.239Z,1.40
2023-11-08T04:32:55.446Z,1.30
2023-11-08T04:35:23.844Z,1.20
2023-11-08T04:37:50.886Z,1.20
2023-11-08T04:40:19.576Z,1.10
2023-11-08T04:42:46.739Z,1.10
2023-11-08T04:45:13.807Z,1.10
2023-11-08T04:47:41.118Z,1.30
2023-11-08T04:50:09.923Z,1.40
2023-11-08T04:52:37.059Z,1.50
2023-11-08T04:55:04.507Z,1.60
2023-11-08T04:57:33.468Z,1.60
2023-11-08T05:00:00.642Z,1.60
2023-11-08T05:02:28.140Z,1.60
2023-11-08T05:04:55.156Z,1.60
2023-11-08T05:07:22.390Z,1.50
2023-11-08T05:09:50.060Z,1.50
2023-11-08T05:12:19.063Z,1.50
2023-11-08T05:14:46.805Z,1.50
2023-11-08T05:17:16.801Z,1.70
2023-11-08T05:19:44.189Z,1.70
2023-11-08T05:22:12.727Z,1.70
2023-11-08T05:24:40.990Z,1.80
2023-11-08T05:27:08.068Z,1.80
2023-11-08T05:29:35.105Z,1.90
2023-11-08T05:32:03.545Z,1.90
2023-11-08T05:34:30.619Z,1.90
2023-11-08T05:36:57.810Z,1.90
2023-11-08T05:39:26.555Z,2.00
2023-11-08T05:41:54.115Z,2.00
2023-11-08T05:44:21.502Z,2.00
2023-11-08T05:46:50.615Z,2.00
2023-11-08T05:49:18.036Z,1.90
2023-11-08T05:51:45.103Z,1.90
2023-11-08T05:54:12.294Z,1.80
2023-11-08T05:56:39.348Z,1.90
2023-11-08T05:59:07.588Z,1.90
2023-11-08T06:01:36.046Z,1.80
2023-11-08T06:04:05.217Z,1.90
2023-11-08T06:06:32.314Z,1.80
2023-11-08T06:08:59.455Z,1.70
2023-11-08T06:11:28.160Z,1.70
2023-11-08T06:13:55.347Z,1.70
2023-11-08T06:16:22.395Z,1.70
2023-11-08T06:18:49.776Z,1.70
2023-11-08T06:21:17.172Z,1.60
2023-11-08T06:23:47.251Z,1.50
2023-11-08T06:26:19.302Z,1.50
2023-11-08T06:28:47.375Z,1.50
2023-11-08T06:31:14.993Z,1.60
2023-11-08T06:33:42.323Z,1.60
2023-11-08T06:36:12.473Z,1.60
2023-11-08T06:38:40.904Z,1.60
2023-11-08T06:41:07.975Z,1.70
2023-11-08T06:43:34.976Z,1.60
2023-11-08T06:46:02.421Z,1.70
2023-11-08T06:48:29.509Z,1.60
2023-11-08T06:50:56.600Z,1.70
2023-11-08T06:55:51.380Z,1.80
2023-11-08T06:58:18.510Z,1.70
2023-11-08T07:00:45.584Z,1.70
2023-11-08T07:03:12.782Z,1.70
2023-11-08T07:05:40.044Z,1.70
2023-11-08T07:08:09.461Z,1.60
2023-11-08T07:10:36.921Z,1.70
2023-11-08T07:13:03.995Z,1.80
2023-11-08T07:15:31.706Z,1.80
2023-11-08T07:17:58.822Z,1.90
2023-11-08T07:20:26.234Z,2.10
2023-11-08T07:22:53.228Z,2.20
2023-11-08T07:25:21.683Z,2.30
2023-11-08T07:27:48.839Z,2.40
2023-11-08T07:30:18.076Z,2.30
2023-11-08T07:32:47.553Z,2.40
2023-11-08T07:35:15.099Z,2.60
2023-11-08T07:37:42.276Z,2.70
2023-11-08T07:40:13.768Z,2.90
2023-11-08T07:42:42.299Z,3.20
2023-11-08T07:45:10.601Z,3.60
2023-11-08T07:47:37.783Z,3.70
2023-11-08T07:50:07.516Z,3.90
2023-11-08T07:52:34.851Z,4.50
2023-11-08T07:55:02.299Z,5.30
2023-11-08T07:57:29.552Z,6.00
2023-11-08T07:59:56.530Z,6.30
2023-11-08T08:02:23.662Z,6.60
2023-11-08T08:04:50.862Z,6.90
2023-11-08T08:07:18.009Z,7.10
2023-11-08T08:09:46.200Z,7.60
2023-11-08T08:12:13.508Z,8.30
2023-11-08T08:14:40.626Z,8.60
2023-11-08T08:17:09.757Z,9.10
2023-11-08T08:19:37.532Z,9.30
2023-11-08T08:22:05.480Z,9.70
2023-11-08T08:24:32.736Z,9.80
2023-11-08T08:27:00.830Z,10.30
2023-11-08T08:29:29.526Z,10.20
2023-11-08T08:31:56.651Z,10.40
2023-11-08T08:34:29.053Z,10.70
2023-11-08T08:36:59.137Z,10.60
2023-11-08T08:39:29.826Z,10.70
2023-11-08T08:41:57.998Z,10.90
2023-11-08T08:44:25.652Z,10.80
2023-11-08T08:46:53.228Z,10.90
2023-11-08T08:49:22.144Z,10.90
2023-11-08T08:51:51.356Z,11.40
2023-11-08T08:54:22.787Z,11.50
2023-11-08T08:56:50.293Z,11.00
2023-11-08T08:59:17.651Z,10.60
2023-11-08T09:01:44.938Z,10.40
2023-11-08T09:04:12.247Z,10.60
2023-11-08T09:06:40.264Z,10.70
2023-11-08T09:09:13.385Z,11.10
2023-11-08T09:11:44.097Z,11.30
2023-11-08T09:14:11.171Z,11.60
2023-11-08T09:16:40.037Z,11.20
2023-11-08T09:19:09.657Z,10.90
2023-11-08T09:21:37.756Z,11.10
2023-11-08T09:24:07.743Z,11.30
2023-11-08T09:26:36.016Z,11.70
2023-11-08T09:29:03.019Z,11.60
2023-11-08T09:31:31.678Z,12.00
2023-11-08T09:33:59.021Z,12.30
2023-11-08T09:36:27.119Z,12.50
2023-11-08T09:38:55.046Z,12.50
2023-11-08T09:41:23.273Z,12.90
2023-11-08T09:43:51.019Z,12.70
2023-11-08T09:46:18.473Z,12.60
2023-11-08T09:48:47.335Z,12.50
2023-11-08T09:51:14.734Z,12.40
2023-11-08T09:53:45.554Z,12.60
2023-11-08T09:56:13.162Z,12.70
2023-11-08T09:58:45.141Z,12.80
2023-11-08T10:01:18.861Z,12.30
2023-11-08T10:03:47.274Z,12.20
2023-11-08T10:06:16.303Z,12.10
2023-11-08T10:08:43.572Z,12.20
2023-11-08T10:11:16.969Z,12.40
2023-11-08T10:13:50.080Z,12.70
2023-11-08T10:16:18.668Z,13.10
2023-11-08T10:19:36.220Z,13.00
2023-11-08T10:21:52.527Z,13.00
2023-11-08T10:24:19.737Z,12.90
2023-11-08T10:26:47.951Z,12.60
2023-11-08T10:29:15.093Z,12.20
2023-11-08T10:31:43.330Z,12.10
2023-11-08T10:34:16.121Z,11.60
2023-11-08T10:36:44.369Z,10.80
2023-11-08T10:39:21.017Z,10.80
2023-11-08T10:41:51.206Z,10.60
2023-11-08T10:44:25.941Z,10.80
2023-11-08T10:46:59.723Z,10.80
2023-11-08T10:49:27.611Z,10.60
2023-11-08T10:51:58.993Z,10.50
2023-11-08T10:54:26.399Z,10.70
2023-11-08T10:56:56.410Z,11.00
2023-11-08T10:59:24.904Z,11.20
2023-11-08T11:01:52.013Z,11.60
2023-11-08T11:04:20.997Z,12.00
2023-11-08T11:06:50.170Z,12.00
2023-11-08T11:09:18.525Z,11.60
2023-11-08T11:11:52.077Z,11.30
2023-11-08T11:14:43.046Z,11.10
2023-11-08T11:17:33.337Z,11.10
2023-11-08T11:20:06.946Z,11.10
2023-11-08T11:22:34.869Z,11.00
2023-11-08T11:25:04.382Z,10.90
2023-11-08T11:27:36.784Z,10.90
2023-11-08T11:30:16.377Z,10.90
2023-11-08T11:32:49.186Z,11.00
2023-11-08T11:35:20.045Z,10.90
2023-11-08T11:38:08.605Z,11.00
2023-11-08T11:40:36.855Z,11.40
2023-11-08T11:43:23.987Z,11.50
2023-11-08T11:45:54.353Z,11.80
2023-11-08T11:48:22.998Z,12.00
2023-11-08T11:50:51.163Z,11.90
2023-11-08T11:53:18.687Z,11.70
2023-11-08T11:55:45.769Z,11.60
2023-11-08T11:58:12.891Z,11.90
2023-11-08T12:00:40.015Z,11.80
2023-11-08T12:03:07.133Z,11.80
2023-11-08T12:05:34.464Z,11.80
2023-11-08T12:08:01.550Z,11.80
2023-11-08T12:10:30.709Z,11.40
2023-11-08T12:12:59.324Z,11.30
2023-11-08T12:15:27.110Z,11.70
2023-11-08T12:17:55.317Z,12.10
2023-11-08T12:20:25.708Z,12.10
2023-11-08T12:22:55.254Z,12.10
2023-11-08T12:25:23.418Z,11.70
2023-11-08T12:27:58.027Z,11.40
2023-11-08T12:30:27.172Z,11.20
2023-11-08T12:32:59.846Z,11.00
2023-11-08T12:35:27.325Z,10.50
2023-11-08T12:38:01.264Z,10.20
2023-11-08T12:40:29.046Z,10.10
2023-11-08T12:43:55.785Z,10.00
2023-11-08T12:46:35.126Z,9.90
2023-11-08T12:48:31.816Z,9.80
2023-11-08T12:51:07.162Z,9.80
2023-11-08T12:53:34.218Z,9.70
2023-11-08T12:56:07.266Z,9.60
2023-11-08T12:58:35.148Z,9.60
2023-11-08T13:01:07.849Z,9.60
2023-11-08T13:03:44.143Z,9.60
2023-11-08T13:06:11.810Z,9.60
2023-11-08T13:08:40.778Z,9.70
2023-11-08T13:11:07.903Z,9.70
2023-11-08T13:13:36.337Z,9.70
2023-11-08T13:16:04.884Z,9.60
2023-11-08T13:18:31.985Z,9.60
2023-11-08T13:20:59.074Z,9.50
2023-11-08T13:24:00.615Z,9.40
2023-11-08T13:26:15.476Z,9.30
2023-11-08T13:28:44.973Z,9.20
2023-11-08T13:31:16.542Z,9.20
2023-11-08T13:33:44.243Z,9.20
2023-11-08T13:36:12.203Z,9.20
2023-11-08T13:38:39.631Z,9.20
2023-11-08T13:41:07.202Z,9.20
2023-11-08T13:43:35.684Z,9.20
2023-11-08T13:46:03.259Z,9.20
2023-11-08T13:48:30.567Z,9.20
2023-11-08T13:51:01.128Z,9.30
2023-11-08T13:53:28.484Z,9.30
2023-11-08T13:55:55.667Z,9.50
2023-11-08T13:58:29.404Z,10.10
2023-11-08T14:01:08.059Z,10.50
2023-11-08T14:03:36.985Z,10.90
2023-11-08T14:06:05.104Z,11.20
2023-11-08T14:08:32.535Z,11.10
2023-11-08T14:10:59.664Z,11.00
2023-11-08T14:13:27.155Z,10.70
2023-11-08T14:15:54.563Z,10.30
2023-11-08T14:18:21.682Z,10.00
2023-11-08T14:20:49.670Z,9.60
2023-11-08T14:23:17.338Z,9.40
2023-11-08T14:25:44.470Z,9.30
2023-11-08T14:28:11.663Z,9.20
2023-11-08T14:30:38.833Z,9.10
2023-11-08T14:33:06.209Z,9.00
2023-11-08T14:35:35.526Z,9.00
2023-11-08T14:38:02.776Z,8.90
2023-11-08T14:40:30.077Z,8.90
2023-11-08T14:42:57.220Z,8.80
2023-11-08T14:45:24.459Z,8.80
2023-11-08T14:47:52.310Z,8.80
2023-11-08T14:50:22.111Z,8.80
2023-11-08T14:52:51.360Z,8.60
2023-11-08T14:55:19.036Z,8.60
2023-11-08T14:57:46.568Z,8.50
2023-11-08T15:00:14.092Z,8.50
2023-11-08T15:02:41.330Z,8.50
2023-11-08T15:05:09.034Z,8.50
2023-11-08T15:09:42.609Z,8.50
2023-11-08T15:10:23.510Z,8.50
2023-11-08T15:12:50.806Z,8.40
2023-11-08T15:15:18.631Z,8.30
2023-11-08T15:17:46.983Z,8.30
2023-11-08T15:20:14.134Z,8.20
2023-11-08T15:22:41.602Z,8.20
2023-11-08T15:25:10.445Z,8.10
2023-11-08T15:27:38.038Z,8.00
2023-11-08T15:30:09.846Z,7.80
2023-11-08T15:32:40.301Z,7.60
2023-11-08T15:35:08.463Z,7.40
2023-11-08T15:37:35.518Z,7.20
2023-11-08T15:40:05.252Z,7.10
2023-11-08T15:42:33.442Z,7.00
2023-11-08T15:45:00.652Z,6.80
2023-11-08T15:47:27.947Z,6.60
2023-11-08T15:49:55.672Z,6.40
2023-11-08T15:52:22.923Z,6.20
2023-11-08T15:54:50.003Z,6.10
2023-11-08T15:57:17.040Z,5.90
2023-11-08T15:59:44.738Z,5.80
2023-11-08T16:02:11.865Z,5.60
2023-11-08T16:04:40.429Z,5.50
2023-11-08T16:07:09.026Z,5.30
2023-11-08T16:09:37.426Z,5.20
2023-11-08T16:12:05.030Z,5.10
2023-11-08T16:14:33.532Z,5.00
2023-11-08T16:17:05.185Z,4.90
2023-11-08T16:19:32.374Z,4.90
2023-11-08T16:21:59.610Z,4.80
2023-11-08T16:24:26.663Z,4.60
2023-11-08T16:26:54.760Z,4.50
2023-11-08T16:29:50.265Z,4.40
2023-11-08T16:32:34.355Z,4.30
2023-11-08T16:34:58.107Z,4.30
2023-11-08T16:37:26.571Z,4.20
2023-11-08T16:39:53.762Z,4.00
2023-11-08T16:42:20.993Z,3.90
2023-11-08T16:44:48.086Z,3.80
2023-11-08T16:47:15.528Z,3.70
2023-11-08T16:49:43.666Z,3.60
2023-11-08T16:52:10.711Z,3.50
2023-11-08T16:54:37.743Z,3.50
2023-11-08T16:57:04.976Z,3.40
2023-11-08T16:59:32.111Z,3.50
2023-11-08T17:01:59.115Z,3.60
2023-11-08T17:04:26.294Z,3.80
2023-11-08T17:06:53.557Z,3.90
2023-11-08T17:09:20.953Z,3.80
2023-11-08T17:11:52.156Z,3.90
2023-11-08T17:14:22.959Z,3.90
2023-11-08T17:16:49.938Z,3.80
2023-11-08T17:19:17.011Z,3.80
2023-11-08T17:21:44.413Z,3.80
2023-11-08T17:24:11.462Z,3.80
2023-11-08T17:26:38.840Z,3.90
2023-11-08T17:29:06.272Z,3.90
2023-11-08T17:31:33.947Z,3.80
2023-11-08T17:34:01.074Z,3.90
2023-11-08T17:36:28.142Z,3.80
2023-11-08T17:38:55.121Z,3.70
2023-11-08T17:41:22.205Z,3.70
2023-11-08T17:43:49.479Z,3.80
2023-11-08T17:46:18.029Z,3.80
2023-11-08T17:48:45.324Z,3.70
2023-11-08T17:51:12.406Z,3.70
2023-11-08T17:53:39.436Z,3.60
2023-11-08T17:56:07.005Z,3.60
2023-11-08T17:58:34.625Z,3.60
2023-11-08T18:01:01.727Z,3.70
2023-11-08T18:03:28.835Z,3.80
2023-11-08T18:05:58.759Z,3.90
2023-11-08T18:08:25.910Z,3.90
2023-11-08T18:10:53.061Z,3.90
2023-11-08T18:13:20.347Z,3.90
2023-11-08T18:15:50.498Z,3.90
2023-11-08T18:18:19.867Z,3.80
2023-11-08T18:20:47.174Z,3.80
2023-11-08T18:23:14.249Z,3.70
2023-11-08T18:25:42.113Z,3.70
2023-11-08T18:28:10.380Z,3.60
2023-11-08T18:30:37.575Z,3.60
2023-11-08T18:33:04.664Z,3.50
2023-11-08T18:35:31.870Z,3.50
2023-11-08T18:37:58.976Z,3.50
2023-11-08T18:40:27.516Z,3.40
2023-11-08T18:42:54.774Z,3.40
2023-11-08T18:45:21.866Z,3.50
2023-11-08T18:47:48.972Z,3.60
2023-11-08T18:50:16.821Z,3.50
2023-11-08T18:52:44.670Z,3.50
2023-11-08T18:55:11.904Z,3.60
2023-11-08T18:57:39.068Z,3.60
2023-11-08T19:00:06.973Z,3.70
2023-11-08T19:02:34.161Z,3.60
2023-11-08T19:05:02.595Z,3.50
2023-11-08T19:07:29.709Z,3.50
2023-11-08T19:09:56.730Z,3.40
2023-11-08T19:12:25.414Z,3.40
2023-11-08T19:14:52.492Z,3.50
2023-11-08T19:17:19.879Z,3.50
2023-11-08T19:19:47.520Z,3.50
2023-11-08T19:22:14.638Z,3.40
2023-11-08T19:24:41.712Z,3.50
2023-11-08T19:27:08.714Z,3.50
2023-11-08T19:29:35.815Z,3.60
2023-11-08T19:32:02.911Z,3.70
2023-11-08T19:34:30.107Z,3.70
2023-11-08T19:36:57.229Z,3.70
2023-11-08T19:39:25.495Z,3.80
2023-11-08T19:41:52.525Z,3.80
2023-11-08T19:44:19.594Z,3.80
2023-11-08T19:46:46.919Z,3.70
2023-11-08T19:49:14.062Z,3.60
2023-11-08T19:51:42.347Z,3.60
2023-11-08T19:54:09.386Z,3.50
2023-11-08T19:56:36.491Z,3.40
2023-11-08T19:59:03.546Z,3.40
2023-11-08T20:01:30.799Z,3.50
2023-11-08T20:03:57.948Z,3.50
2023-11-08T20:06:26.062Z,3.40
2023-11-08T20:08:53.133Z,3.30
2023-11-08T20:11:20.151Z,3.20
2023-11-08T20:13:47.232Z,3.20
2023-11-08T20:16:14.436Z,3.10
2023-11-08T20:18:41.946Z,3.10
2023-11-08T20:21:11.200Z,3.10
2023-11-08T20:23:38.821Z,3.10
2023-11-08T20:26:07.429Z,3.10
2023-11-08T20:28:37.467Z,3.10
2023-11-08T20:31:06.018Z,3.00
2023-11-08T20:33:33.634Z,3.00
2023-11-08T20:36:01.312Z,2.90
2023-11-08T20:38:29.514Z,2.90
2023-11-08T20:40:56.926Z,2.80
2023-11-08T20:43:24.374Z,2.60
2023-11-08T20:45:51.566Z,2.50
2023-11-08T20:48:18.615Z,2.50
2023-11-08T20:50:47.066Z,2.50
2023-11-08T20:53:14.353Z,2.40
2023-11-08T20:55:41.638Z,2.40
2023-11-08T20:58:08.698Z,2.30
2023-11-08T21:00:35.773Z,2.20
2023-11-08T21:03:04.431Z,2.20
2023-11-08T21:05:31.657Z,2.20
2023-11-08T21:07:58.711Z,2.20
2023-11-08T21:10:25.828Z,2.20
2023-11-08T21:12:53.015Z,2.20
2023-11-08T21:15:20.141Z,2.20
2023-11-08T21:17:47.444Z,2.20
2023-11-08T21:20:15.735Z,2.30
2023-11-08T21:22:43.180Z,2.30
2023-11-08T21:25:11.051Z,2.30
2023-11-08T21:27:38.907Z,2.30
2023-11-08T21:30:09.544Z,2.30
2023-11-08T21:32:37.891Z,2.30
2023-11-08T21:35:05.560Z,2.30
2023-11-08T21:37:33.661Z,2.30
2023-11-08T21:40:00.754Z,2.40
2023-11-08T21:42:27.906Z,2.50
2023-11-08T21:44:54.896Z,2.60
2023-11-08T21:47:21.869Z,2.80
2023-11-08T21:49:50.229Z,2.70
2023-11-08T21:52:17.755Z,2.70
2023-11-08T21:54:46.472Z,2.60
2023-11-08T21:57:14.256Z,2.60
2023-11-08T21:59:41.722Z,2.50
2023-11-08T22:02:09.037Z,2.40
2023-11-08T22:04:36.793Z,2.20
2023-11-08T22:07:04.807Z,2.20
2023-11-08T22:09:32.210Z,2.20
2023-11-08T22:11:59.215Z,2.30
2023-11-08T22:14:27.666Z,2.30
2023-11-08T22:16:54.750Z,2.30
2023-11-08T22:19:21.904Z,2.40
2023-11-08T22:21:48.961Z,2.40
2023-11-08T22:24:18.406Z,2.50
2023-11-08T22:26:45.648Z,2.50
2023-11-08T22:29:12.649Z,2.50
2023-11-08T22:31:39.945Z,2.40
2023-11-08T22:34:07.679Z,2.50
2023-11-08T22:36:34.725Z,2.50
2023-11-08T22:39:04.516Z,2.40
2023-11-08T22:41:31.576Z,2.30
2023-11-08T22:43:58.586Z,2.20
2023-11-08T22:46:31.705Z,2.30
2023-11-08T22:48:59.887Z,2.30
2023-11-08T22:51:28.377Z,2.20
2023-11-08T22:53:55.857Z,2.20
2023-11-08T22:56:22.965Z,2.20
2023-11-08T22:58:50.012Z,2.10
2023-11-08T23:01:37.156Z,2.00
2023-11-08T23:04:05.092Z,2.00
2023-11-08T23:06:32.845Z,2.00
2023-11-08T23:09:03.486Z,2.00
2023-11-08T23:11:32.493Z,2.10
2023-11-08T23:13:59.710Z,2.10
2023-11-08T23:16:27.414Z,2.30
2023-11-08T23:18:55.484Z,2.30
2023-11-08T23:21:23.397Z,2.20
2023-11-08T23:23:52.513Z,2.30
2023-11-08T23:26:20.591Z,2.30
2023-11-08T23:28:47.788Z,2.20
2023-11-08T23:31:15.329Z,2.10
2023-11-08T23:33:42.470Z,2.20
2023-11-08T23:36:13.684Z,2.20
2023-11-08T23:38:44.494Z,2.10
2023-11-08T23:41:11.750Z,2.10
2023-11-08T23:43:38.766Z,2.10
2023-11-08T23:46:06.950Z,2.00
2023-11-08T23:48:34.087Z,2.00
2023-11-08T23:51:01.116Z,1.90
2023-11-08T23:53:28.349Z,1.90
2023-11-08T23:55:55.361Z,2.00
2023-11-08T23:58:22.648Z,1.90
